Time;durP1;ratioP1;P1;durP2;ratioP2;P2;SDS_P1;SDS_P2;PMS_P1;PMS_P2;Temp;Humidity;BMP_temperature;BMP_pressure;BME280_temperature;BME280_humidity;BME280_pressure;Samples;Min_cycle;Max_cycle;Signal;HPM_P1;HPM_P2
2021/09/24 00:00:27;;;;;;;4.87;3.63;;;;;;;14.37;76.68;96990.97;5116085;28;20585;-61
2021/09/24 00:02:53;;;;;;;4.10;3.13;;;;;;;14.07;78.03;96995.81;5116891;28;20187;-61
2021/09/24 00:05:19;;;;;;;4.53;3.93;;;;;;;14.23;77.36;96991.53;5116591;28;20626;-60
2021/09/24 00:07:44;;;;;;;3.93;3.53;;;;;;;14.21;77.34;96991.75;5116442;28;20186;-61
2021/09/24 00:10:11;;;;;;;4.13;3.73;;;;;;;14.03;78.05;96992.06;5098395;28;20210;-61
2021/09/24 00:12:38;;;;;;;3.83;3.37;;;;;;;13.87;78.94;96985.78;5116232;28;20172;-60
2021/09/24 00:15:06;;;;;;;4.07;3.47;;;;;;;13.71;79.83;96984.75;5116597;28;20206;-61
2021/09/24 00:17:32;;;;;;;4.60;3.70;;;;;;;13.84;79.20;96988.09;5116489;28;20207;-60
2021/09/24 00:19:57;;;;;;;4.07;3.60;;;;;;;13.82;79.51;96983.06;5116613;28;20192;-60
2021/09/24 00:22:22;;;;;;;4.23;3.83;;;;;;;13.78;79.59;96975.88;5116280;28;20562;-61
2021/09/24 00:24:48;;;;;;;5.47;4.17;;;;;;;13.59;80.48;96973.53;5097610;28;20214;-61
2021/09/24 00:27:13;;;;;;;5.60;3.30;;;;;;;13.55;80.90;96971.59;5116467;28;20663;-60
2021/09/24 00:29:39;;;;;;;4.50;4.10;;;;;;;13.62;80.75;96980.13;5116187;28;20180;-60
2021/09/24 00:32:05;;;;;;;4.40;4.00;;;;;;;13.58;80.75;96974.56;5116451;28;20188;-60
2021/09/24 00:34:30;;;;;;;4.20;3.80;;;;;;;13.70;80.41;96980.53;5114999;28;20181;-61
2021/09/24 00:36:56;;;;;;;4.63;3.93;;;;;;;13.56;80.94;96974.00;5114690;28;20196;-61
2021/09/24 00:39:22;;;;;;;4.23;3.93;;;;;;;13.67;80.47;96982.84;5116133;28;20233;-61
2021/09/24 00:41:47;;;;;;;5.97;4.60;;;;;;;13.67;80.30;96974.94;5115562;28;20179;-61
2021/09/24 00:44:13;;;;;;;5.80;4.00;;;;;;;13.55;81.04;96982.94;5115161;28;20179;-61
2021/09/24 00:46:38;;;;;;;7.83;4.00;;;;;;;13.54;81.01;96983.97;5115515;28;20255;-61
2021/09/24 00:49:03;;;;;;;5.40;4.30;;;;;;;13.61;80.60;96984.59;5116086;28;20184;-60
2021/09/24 00:51:29;;;;;;;7.03;4.00;;;;;;;13.42;81.69;96998.28;5116176;28;20192;-61
2021/09/24 00:53:54;;;;;;;4.43;4.03;;;;;;;13.41;81.70;96988.78;5114905;28;20599;-60
2021/09/24 00:56:21;;;;;;;4.33;3.90;;;;;;;13.50;81.42;96989.94;5115265;28;20240;-60
2021/09/24 00:58:46;;;;;;;4.33;3.90;;;;;;;13.34;82.06;96991.56;5114854;28;20552;-62
2021/09/24 01:01:13;;;;;;;4.53;3.80;;;;;;;13.40;81.83;96997.69;5115763;28;20184;-60
2021/09/24 01:03:38;;;;;;;4.33;4.00;;;;;;;13.50;81.26;97000.50;5097071;28;20184;-61
2021/09/24 01:06:04;;;;;;;4.23;3.83;;;;;;;13.26;82.50;96999.84;5115413;28;20192;-62
2021/09/24 01:08:31;;;;;;;4.73;4.00;;;;;;;13.03;83.71;97003.38;5115393;28;20516;-60
2021/09/24 01:10:57;;;;;;;4.37;3.97;;;;;;;13.03;83.63;97002.56;5115585;28;20659;-62
2021/09/24 01:13:22;;;;;;;4.47;4.17;;;;;;;13.06;83.75;97004.72;5115225;28;20255;-60
2021/09/24 01:15:47;;;;;;;4.40;4.00;;;;;;;13.04;83.80;97006.81;5114698;28;20202;-60
2021/09/24 01:18:13;;;;;;;4.57;4.17;;;;;;;13.03;83.81;97007.84;5114206;28;20203;-61
2021/09/24 01:20:39;;;;;;;9.87;4.30;;;;;;;12.94;84.17;97002.16;5115033;28;20674;-61
2021/09/24 01:23:05;;;;;;;5.23;3.83;;;;;;;13.11;83.54;97002.97;5096864;28;20184;-60
2021/09/24 01:25:31;;;;;;;4.43;4.10;;;;;;;13.13;83.23;96997.50;5115162;28;20192;-61
2021/09/24 01:27:57;;;;;;;4.53;4.13;;;;;;;13.41;82.19;96999.31;5114860;28;20244;-60
2021/09/24 01:30:23;;;;;;;4.90;4.50;;;;;;;13.24;82.74;96996.66;5115328;28;20192;-60
2021/09/24 01:32:49;;;;;;;4.53;4.13;;;;;;;13.29;82.56;96994.09;5115322;28;20672;-62
2021/09/24 01:35:16;;;;;;;5.13;4.63;;;;;;;13.25;82.86;96988.53;5114924;28;20540;-61
2021/09/24 01:37:42;;;;;;;5.40;4.67;;;;;;;13.29;82.60;96992.28;5114640;28;20207;-61
2021/09/24 01:40:17;;;;;;;4.60;4.20;;;;;;;13.19;83.22;96988.69;5114709;28;20188;-61
2021/09/24 01:42:44;;;;;;;4.73;4.33;;;;;;;13.21;83.16;96986.59;5114496;28;20175;-61
2021/09/24 01:45:10;;;;;;;5.47;4.63;;;;;;;13.29;83.05;96989.63;5114514;28;20179;-61
2021/09/24 01:47:36;;;;;;;5.00;4.60;;;;;;;13.37;82.59;96991.09;5114629;28;20203;-61
2021/09/24 01:50:03;;;;;;;5.00;4.17;;;;;;;13.24;83.03;96983.50;5114227;28;20652;-61
2021/09/24 01:52:29;;;;;;;4.60;4.20;;;;;;;13.26;83.15;96978.81;5114366;28;20708;-61
2021/09/24 01:54:55;;;;;;;6.43;4.83;;;;;;;13.16;83.64;96984.66;5114448;28;20298;-61
2021/09/24 01:57:20;;;;;;;5.03;4.53;;;;;;;13.30;82.79;96978.09;5114422;28;20251;-61
2021/09/24 01:59:46;;;;;;;5.07;4.63;;;;;;;13.21;83.45;96973.44;5114366;28;20637;-61
2021/09/24 02:02:11;;;;;;;5.97;4.50;;;;;;;13.12;83.84;96973.03;5114091;28;20605;-61
2021/09/24 02:04:37;;;;;;;5.20;4.67;;;;;;;13.03;84.53;96973.63;5113943;28;20176;-61
2021/09/24 02:07:03;;;;;;;4.93;4.30;;;;;;;13.00;84.62;96971.47;5114103;28;20747;-61
2021/09/24 02:09:28;;;;;;;5.00;4.50;;;;;;;13.08;84.36;96969.25;5114137;28;20652;-61
2021/09/24 02:11:53;;;;;;;5.20;4.70;;;;;;;13.07;84.66;96970.28;5113883;28;20187;-61
2021/09/24 02:14:19;;;;;;;5.10;4.70;;;;;;;13.07;84.71;96970.28;5114103;28;20540;-61
2021/09/24 02:16:44;;;;;;;5.07;4.57;;;;;;;13.04;84.79;96967.34;5114058;28;20204;-61
2021/09/24 02:19:10;;;;;;;5.03;4.53;;;;;;;13.09;84.73;96973.50;5113961;28;20186;-61
2021/09/24 02:21:35;;;;;;;5.33;4.83;;;;;;;12.97;85.01;96971.94;5114117;28;20258;-61
2021/09/24 02:24:00;;;;;;;5.40;4.83;;;;;;;13.00;85.29;96968.81;5113992;28;20222;-61
2021/09/24 02:26:26;;;;;;;5.53;4.97;;;;;;;13.00;85.31;96958.31;5113468;28;20671;-61
2021/09/24 02:28:51;;;;;;;6.10;5.07;;;;;;;13.05;85.25;96961.03;5114133;28;20184;-61
2021/09/24 02:31:17;;;;;;;5.17;4.77;;;;;;;13.01;85.53;96957.28;5114203;28;20191;-61
2021/09/24 02:33:44;;;;;;;5.17;4.67;;;;;;;12.90;86.24;96961.56;5113819;28;20180;-61
2021/09/24 02:36:10;;;;;;;5.37;4.87;;;;;;;12.88;86.33;96961.78;5113511;28;20263;-61
2021/09/24 02:38:36;;;;;;;6.00;4.73;;;;;;;12.94;86.04;96957.41;5095516;28;20275;-62
2021/09/24 02:41:02;;;;;;;5.00;4.60;;;;;;;12.97;85.72;96951.69;5114102;28;20296;-61
2021/09/24 02:43:28;;;;;;;4.93;4.43;;;;;;;12.96;85.83;96952.72;5094871;28;20186;-61
2021/09/24 02:45:53;;;;;;;5.07;4.57;;;;;;;12.84;86.39;96955.41;5112884;28;20179;-61
2021/09/24 02:48:19;;;;;;;5.17;4.67;;;;;;;12.77;86.76;96961.84;5114055;28;20201;-61
2021/09/24 02:50:45;;;;;;;5.30;4.80;;;;;;;12.79;86.77;96959.78;5113023;28;20646;-61
2021/09/24 02:53:11;;;;;;;5.40;4.90;;;;;;;12.93;85.90;96961.88;5115329;27;20223;-61
2021/09/24 02:55:36;;;;;;;5.97;4.63;;;;;;;12.96;85.75;96951.94;5109744;28;20602;-61
2021/09/24 02:58:02;;;;;;;5.87;4.60;;;;;;;12.93;85.98;96959.25;5113132;28;20219;-60
2021/09/24 03:00:27;;;;;;;5.50;5.00;;;;;;;12.95;86.02;96961.66;5112576;28;20207;-60
2021/09/24 03:02:53;;;;;;;5.27;4.60;;;;;;;12.82;86.61;96957.47;5113414;28;20221;-61
2021/09/24 03:05:19;;;;;;;6.03;4.73;;;;;;;12.90;86.40;96957.09;5113216;28;20644;-61
2021/09/24 03:07:44;;;;;;;9.17;5.47;;;;;;;12.99;85.75;96965.41;5112876;28;20184;-61
2021/09/24 03:10:11;;;;;;;7.00;5.03;;;;;;;12.87;86.50;96952.28;5113386;28;20188;-61
2021/09/24 03:12:37;;;;;;;5.73;4.70;;;;;;;12.80;87.22;96958.75;5113478;28;20263;-61
2021/09/24 03:15:05;;;;;;;6.97;4.97;;;;;;;12.79;87.17;96952.69;5113386;28;20263;-61
2021/09/24 03:17:30;;;;;;;5.33;4.83;;;;;;;12.75;87.63;96961.31;5113373;28;20202;-61
2021/09/24 03:19:55;;;;;;;6.07;4.63;;;;;;;12.93;86.69;96958.44;5113050;28;20192;-61
2021/09/24 03:22:21;;;;;;;5.27;4.63;;;;;;;12.93;86.40;96952.41;5113556;28;20180;-62
2021/09/24 03:24:46;;;;;;;5.43;4.93;;;;;;;12.86;87.02;96947.28;5113235;28;20191;-61
2021/09/24 03:27:13;;;;;;;5.63;5.00;;;;;;;12.87;86.75;96947.03;5095035;28;20539;-61
2021/09/24 03:29:38;;;;;;;6.07;5.20;;;;;;;12.92;86.91;96938.47;5113404;28;20184;-61
2021/09/24 03:32:04;;;;;;;5.83;5.23;;;;;;;12.97;86.59;96940.38;5112823;28;20180;-61
2021/09/24 03:34:29;;;;;;;4.90;4.50;;;;;;;13.04;86.13;96936.53;5113273;28;20192;-61
2021/09/24 03:36:55;;;;;;;8.20;4.93;;;;;;;13.02;86.41;96933.38;5112297;28;20215;-61
2021/09/24 03:39:20;;;;;;;7.60;4.67;;;;;;;12.95;86.58;96932.72;5112333;28;20184;-61
2021/09/24 03:41:46;;;;;;;5.33;4.73;;;;;;;13.01;86.46;96941.47;5112654;28;20178;-61
2021/09/24 03:44:11;;;;;;;6.90;4.50;;;;;;;12.83;87.09;96938.03;5112557;28;20667;-61
2021/09/24 03:46:37;;;;;;;5.20;4.70;;;;;;;12.79;87.21;96942.19;5112835;28;20670;-61
2021/09/24 03:49:04;;;;;;;5.93;5.10;;;;;;;12.78;86.82;96943.22;5094519;28;20179;-61
2021/09/24 03:51:30;;;;;;;5.57;5.07;;;;;;;12.72;87.25;96941.50;5094439;28;20279;-61
2021/09/24 03:53:56;;;;;;;5.47;4.97;;;;;;;12.61;87.85;96936.31;5112482;28;20176;-61
2021/09/24 03:56:22;;;;;;;5.57;4.97;;;;;;;12.66;87.24;96939.81;5111899;28;20220;-61
2021/09/24 03:58:47;;;;;;;6.53;4.40;;;;;;;12.53;87.68;96936.69;5111957;28;20180;-61
2021/09/24 04:01:13;;;;;;;5.47;4.97;;;;;;;12.56;87.53;96941.47;5113201;28;20310;-61
2021/09/24 04:03:38;;;;;;;6.60;5.67;;;;;;;12.56;87.68;96944.09;5112400;28;20176;-61
2021/09/24 04:06:03;;;;;;;5.90;5.40;;;;;;;12.64;87.00;96946.38;5112251;28;20662;-61
2021/09/24 04:08:29;;;;;;;5.53;5.00;;;;;;;12.58;87.44;96948.09;5111935;28;20278;-61
2021/09/24 04:10:54;;;;;;;8.90;5.43;;;;;;;12.41;88.79;96955.94;5114173;28;20188;-61
2021/09/24 04:13:21;;;;;;;6.00;5.40;;;;;;;12.35;89.08;96945.56;5116409;28;20180;-60
2021/09/24 04:15:47;;;;;;;6.83;5.90;;;;;;;12.49;88.52;96946.88;5115957;28;20291;-61
2021/09/24 04:18:12;;;;;;;6.27;5.67;;;;;;;12.56;88.33;96949.38;5116512;28;20691;-61
2021/09/24 04:20:38;;;;;;;7.70;5.90;;;;;;;12.64;87.89;96951.63;5116479;28;20194;-61
2021/09/24 04:23:03;;;;;;;6.17;5.50;;;;;;;12.43;89.31;96950.44;5096741;28;20176;-61
2021/09/24 04:25:29;;;;;;;7.80;5.33;;;;;;;12.51;89.29;96952.69;5116156;28;20532;-60
2021/09/24 04:27:54;;;;;;;6.37;5.30;;;;;;;12.61;88.64;96955.50;5115696;28;20184;-61
2021/09/24 04:30:19;;;;;;;6.20;5.60;;;;;;;12.63;88.69;96944.75;5116119;28;20187;-61
2021/09/24 04:32:47;;;;;;;6.00;5.50;;;;;;;12.49;89.32;96952.13;5097956;28;20243;-61
2021/09/24 04:35:13;;;;;;;7.03;5.23;;;;;;;12.48;89.71;96953.94;5115400;28;20168;-62
2021/09/24 04:37:38;;;;;;;6.33;5.73;;;;;;;12.61;88.92;96949.44;5115945;28;20563;-61
2021/09/24 04:40:04;;;;;;;6.30;5.57;;;;;;;12.53;88.90;96950.66;5115797;28;20278;-60
2021/09/24 04:42:29;;;;;;;6.27;5.63;;;;;;;12.47;89.79;96954.22;5115193;28;20617;-60
2021/09/24 04:44:55;;;;;;;6.17;5.57;;;;;;;12.47;89.64;96951.59;5115899;28;20266;-61
2021/09/24 04:47:20;;;;;;;6.50;5.90;;;;;;;12.51;89.73;96944.81;5115250;28;20225;-61
2021/09/24 04:49:45;;;;;;;5.70;5.20;;;;;;;12.41;90.22;96944.63;5115390;28;20188;-61
2021/09/24 04:52:11;;;;;;;7.23;5.73;;;;;;;12.59;89.72;96941.81;5115683;28;20172;-60
2021/09/24 04:54:36;;;;;;;8.90;5.73;;;;;;;12.76;88.77;96934.75;5115429;28;20561;-61
2021/09/24 04:57:02;;;;;;;5.83;5.33;;;;;;;12.77;88.84;96941.59;5115312;28;20195;-61
2021/09/24 04:59:27;;;;;;;7.63;5.47;;;;;;;12.71;89.24;96942.53;5115551;28;20188;-60
2021/09/24 05:01:53;;;;;;;6.63;5.73;;;;;;;12.71;89.32;96944.38;5115242;28;20184;-61
2021/09/24 05:04:18;;;;;;;7.60;6.90;;;;;;;12.55;90.35;96953.03;5114400;28;20428;-60
2021/09/24 05:06:43;;;;;;;6.80;6.10;;;;;;;12.69;89.78;96949.09;5115480;28;20176;-60
2021/09/24 05:09:09;;;;;;;6.17;5.67;;;;;;;12.73;89.50;96952.84;5096481;28;20551;-60
2021/09/24 05:11:34;;;;;;;6.43;5.80;;;;;;;12.61;89.86;96955.50;5115423;28;20179;-60
2021/09/24 05:14:00;;;;;;;6.43;5.40;;;;;;;12.64;89.82;96952.44;5115060;28;20190;-61
2021/09/24 05:16:25;;;;;;;5.60;5.10;;;;;;;12.62;89.93;96951.06;5115336;28;20589;-60
2021/09/24 05:18:51;;;;;;;5.63;5.13;;;;;;;12.55;90.05;96961.72;5115438;28;20179;-60
2021/09/24 05:21:16;;;;;;;5.67;5.17;;;;;;;12.60;90.01;96956.53;5115261;28;20180;-60
2021/09/24 05:23:42;;;;;;;6.43;5.73;;;;;;;12.59;90.50;96957.59;5114261;28;20287;-60
2021/09/24 05:26:07;;;;;;;6.90;6.07;;;;;;;12.58;90.92;96963.88;5115376;28;20519;-60
2021/09/24 05:28:33;;;;;;;6.17;4.97;;;;;;;12.73;89.87;96961.53;5115138;28;20314;-60
2021/09/24 05:30:59;;;;;;;5.67;5.17;;;;;;;12.78;89.95;96964.25;5115307;28;20178;-60
2021/09/24 05:33:24;;;;;;;5.60;5.07;;;;;;;12.99;88.58;96957.50;5114642;28;20715;-60
2021/09/24 05:35:50;;;;;;;5.70;5.20;;;;;;;13.06;88.01;96960.78;5114471;28;20254;-61
2021/09/24 05:38:15;;;;;;;5.43;4.93;;;;;;;13.11;87.92;96962.69;5115094;28;20204;-61
2021/09/24 05:40:41;;;;;;;5.13;4.70;;;;;;;13.29;86.65;96958.06;5115085;28;20180;-62
2021/09/24 05:43:06;;;;;;;5.70;5.10;;;;;;;13.44;85.48;96957.47;5114312;28;20180;-60
2021/09/24 05:45:32;;;;;;;7.13;5.00;;;;;;;13.51;85.41;96952.84;5114627;28;20184;-60
2021/09/24 05:47:57;;;;;;;6.57;4.80;;;;;;;13.58;85.31;96961.41;5114519;28;20192;-61
2021/09/24 05:50:23;;;;;;;7.13;4.80;;;;;;;13.84;83.73;96954.66;5098038;28;20601;-61
2021/09/24 05:52:50;;;;;;;7.00;5.47;;;;;;;13.94;83.19;96960.03;5114766;28;20653;-61
2021/09/24 05:55:18;;;;;;;4.83;4.33;;;;;;;13.99;82.78;96954.84;5113157;28;20230;-62
2021/09/24 05:57:44;;;;;;;6.30;4.67;;;;;;;13.97;82.47;96959.56;5114186;28;20664;-61
2021/09/24 06:00:12;;;;;;;5.43;4.80;;;;;;;14.12;82.06;96964.25;5113939;28;20185;-62
2021/09/24 06:02:39;;;;;;;5.20;4.70;;;;;;;14.26;81.45;96962.06;5114232;28;20184;-62
2021/09/24 06:05:05;;;;;;;5.20;4.60;;;;;;;14.34;80.84;96957.13;5114206;28;20591;-61
2021/09/24 06:07:30;;;;;;;5.00;4.50;;;;;;;14.46;80.29;96963.13;5113952;28;20183;-62
2021/09/24 06:09:56;;;;;;;4.90;4.20;;;;;;;14.66;79.28;96965.16;5114105;28;20620;-63
2021/09/24 06:12:21;;;;;;;7.07;5.03;;;;;;;14.75;78.80;96962.91;5114094;28;20240;-62
2021/09/24 06:14:47;;;;;;;6.23;4.90;;;;;;;14.76;78.64;96961.84;5114281;28;20251;-61
2021/09/24 06:17:12;;;;;;;5.07;4.57;;;;;;;15.02;77.56;96962.91;5113932;28;20199;-62
2021/09/24 06:19:38;;;;;;;4.53;3.53;;;;;;;15.08;77.29;96967.19;5095021;28;20180;-62
2021/09/24 06:22:05;;;;;;;6.13;4.30;;;;;;;15.18;76.81;96967.25;5113346;28;20179;-62
2021/09/24 06:24:31;;;;;;;4.90;4.07;;;;;;;14.96;77.58;96967.31;5095118;28;20645;-62
2021/09/24 06:26:56;;;;;;;4.40;4.00;;;;;;;15.17;76.78;96966.47;5113677;28;20192;-62
2021/09/24 06:29:21;;;;;;;4.70;4.30;;;;;;;15.42;75.90;96973.00;5113740;28;20184;-62
2021/09/24 06:31:47;;;;;;;4.43;4.03;;;;;;;15.52;75.56;96973.91;5114021;28;20211;-62
2021/09/24 06:34:12;;;;;;;4.43;4.00;;;;;;;15.54;74.99;96976.31;5094932;28;20182;-62
2021/09/24 06:36:38;;;;;;;4.17;3.77;;;;;;;15.61;74.78;96975.03;5095089;28;20743;-62
2021/09/24 06:39:03;;;;;;;4.40;3.87;;;;;;;15.67;74.93;96970.56;5113007;28;20179;-64
2021/09/24 06:41:29;;;;;;;7.37;3.07;;;;;;;15.97;77.06;96972.63;5112711;28;20180;-66
2021/09/24 06:43:55;;;;;;;4.00;3.53;;;;;;;16.33;73.28;96977.03;5110927;28;20650;-64
2021/09/24 06:46:20;;;;;;;4.30;3.23;;;;;;;16.49;73.74;96984.00;5107943;28;20225;-64
2021/09/24 06:48:46;;;;;;;4.40;3.60;;;;;;;16.58;72.32;96984.28;5112776;28;20551;-64
2021/09/24 06:51:11;;;;;;;7.10;3.87;;;;;;;16.56;71.79;96992.47;5112974;28;20180;-63
2021/09/24 06:53:36;;;;;;;4.60;3.87;;;;;;;16.85;71.31;96989.41;5113568;28;20191;-64
2021/09/24 06:56:03;;;;;;;4.33;3.60;;;;;;;16.99;70.52;96991.31;5112074;28;20302;-64
2021/09/24 06:58:28;;;;;;;4.37;3.57;;;;;;;17.03;69.68;96992.38;5095083;28;20231;-64
2021/09/24 07:00:54;;;;;;;4.43;3.90;;;;;;;17.15;69.57;96994.78;5113030;28;20659;-64
2021/09/24 07:03:19;;;;;;;4.20;3.53;;;;;;;17.32;69.24;96999.84;5095116;28;20250;-64
2021/09/24 07:05:44;;;;;;;4.00;3.60;;;;;;;17.38;68.79;96993.50;5109931;28;20248;-64
2021/09/24 07:08:10;;;;;;;4.03;3.63;;;;;;;17.61;68.15;96995.63;5113121;28;20641;-63
2021/09/24 07:10:35;;;;;;;3.70;3.30;;;;;;;17.72;67.63;96996.44;5112112;28;20248;-64
2021/09/24 07:13:01;;;;;;;3.67;3.33;;;;;;;17.96;66.75;96996.66;5112022;28;20195;-64
2021/09/24 07:15:26;;;;;;;5.03;3.40;;;;;;;17.87;67.05;97001.72;5112821;28;20179;-64
2021/09/24 07:17:52;;;;;;;3.67;3.37;;;;;;;17.68;67.43;96998.00;5113045;28;20606;-63
2021/09/24 07:20:17;;;;;;;3.83;3.37;;;;;;;17.74;67.43;96995.09;5112961;28;20195;-64
2021/09/24 07:22:43;;;;;;;6.07;3.50;;;;;;;18.05;66.64;96987.09;5113046;28;20176;-61
2021/09/24 07:25:09;;;;;;;4.77;4.07;;;;;;;18.30;65.81;96997.63;5112699;28;20522;-64
2021/09/24 07:27:35;;;;;;;4.03;3.47;;;;;;;18.26;65.30;97000.03;5112490;28;20269;-64
2021/09/24 07:30:01;;;;;;;4.00;3.45;;;;;;;18.44;65.22;97001.31;5112781;28;20638;-64
2021/09/24 07:32:26;;;;;;;3.50;3.20;;;;;;;18.66;64.38;96993.03;5112628;28;20187;-64
2021/09/24 07:34:52;;;;;;;4.30;3.78;;;;;;;18.50;65.13;96994.91;5112645;28;20578;-65
2021/09/24 07:37:17;;;;;;;4.15;3.75;;;;;;;18.61;64.53;96998.38;5112609;28;20203;-64
2021/09/24 07:39:43;;;;;;;5.35;3.45;;;;;;;18.62;64.57;96999.94;5112929;28;20233;-62
2021/09/24 07:42:09;;;;;;;4.07;3.78;;;;;;;18.65;63.94;97007.38;5093914;28;20221;-62
2021/09/24 07:44:35;;;;;;;4.20;3.80;;;;;;;18.54;64.01;97008.44;5112142;28;20180;-62
2021/09/24 07:47:01;;;;;;;6.93;4.03;;;;;;;18.32;64.57;97005.34;5115976;28;20184;-63
2021/09/24 07:49:26;;;;;;;4.50;3.85;;;;;;;18.29;65.12;97011.97;5116612;28;20172;-62
2021/09/24 07:51:53;;;;;;;4.43;4.03;;;;;;;18.33;64.87;97013.03;5116490;28;20643;-62
2021/09/24 07:54:21;;;;;;;4.30;3.65;;;;;;;18.41;64.70;97015.13;5098068;28;20187;-63
2021/09/24 07:56:48;;;;;;;5.78;4.22;;;;;;;18.34;64.61;97011.94;5116075;28;20295;-63
2021/09/24 07:59:13;;;;;;;5.35;3.80;;;;;;;18.47;64.66;97013.25;5116222;28;20679;-62
2021/09/24 08:01:39;;;;;;;4.65;4.00;;;;;;;18.26;65.59;97013.31;5116892;28;20183;-62
2021/09/24 08:04:04;;;;;;;5.77;4.10;;;;;;;18.25;65.81;97022.34;5116393;28;20685;-62
2021/09/24 08:06:30;;;;;;;5.53;4.10;;;;;;;18.48;64.92;97018.28;5116662;28;20184;-62
2021/09/24 08:08:55;;;;;;;4.55;4.07;;;;;;;18.35;65.90;97015.41;5116414;28;20640;-65
2021/09/24 08:11:20;;;;;;;4.13;3.72;;;;;;;18.43;65.14;97018.31;5116450;28;20191;-62
2021/09/24 08:13:46;;;;;;;4.32;3.72;;;;;;;18.49;65.14;97019.09;5116028;28;20190;-63
2021/09/24 08:16:11;;;;;;;4.75;3.95;;;;;;;18.71;64.42;97024.88;5097098;28;20640;-63
2021/09/24 08:18:37;;;;;;;4.35;3.78;;;;;;;18.86;64.22;97030.09;5098010;28;20228;-63
2021/09/24 08:21:04;;;;;;;4.28;3.75;;;;;;;18.94;63.72;97031.41;5115973;28;20176;-63
2021/09/24 08:23:29;;;;;;;4.22;3.83;;;;;;;19.10;62.52;97027.59;5116109;28;20183;-62
2021/09/24 08:25:55;;;;;;;4.20;3.80;;;;;;;19.09;63.05;97032.13;5097470;28;20255;-63
2021/09/24 08:28:20;;;;;;;4.13;3.65;;;;;;;19.20;62.27;97024.88;5115441;28;20332;-63
2021/09/24 08:30:46;;;;;;;4.93;4.20;;;;;;;19.18;61.81;97028.84;5115639;28;20180;-63
2021/09/24 08:33:14;;;;;;;4.65;3.83;;;;;;;19.23;62.04;97034.94;5116443;28;20172;-63
2021/09/24 08:35:41;;;;;;;4.13;3.72;;;;;;;19.48;61.63;97031.34;5116117;28;20180;-63
2021/09/24 08:38:06;;;;;;;4.38;3.97;;;;;;;19.47;61.44;97022.59;5115908;28;20227;-63
2021/09/24 08:40:32;;;;;;;5.90;3.45;;;;;;;19.47;61.75;97011.94;5115450;28;20221;-63
2021/09/24 08:43:00;;;;;;;4.13;3.70;;;;;;;19.51;61.06;97015.63;5096869;28;20191;-63
2021/09/24 08:45:26;;;;;;;4.88;3.75;;;;;;;19.64;60.50;97019.53;5115854;28;20248;-63
2021/09/24 08:48:03;;;;;;;7.75;3.80;;;;;;;19.74;60.43;97016.00;5115454;28;20701;-63
2021/09/24 08:50:31;;;;;;;4.05;3.55;;;;;;;19.86;59.49;97013.75;5115972;28;20199;-63
2021/09/24 08:52:57;;;;;;;3.97;3.63;;;;;;;19.87;59.83;97015.34;5115347;28;20241;-63
2021/09/24 08:55:24;;;;;;;4.55;3.70;;;;;;;20.06;59.13;97020.78;5114600;28;20311;-63
2021/09/24 08:57:50;;;;;;;4.70;3.75;;;;;;;20.09;58.79;97018.34;5114156;28;20235;-63
2021/09/24 09:00:16;;;;;;;3.67;3.38;;;;;;;20.22;59.08;97019.53;5114630;28;20187;-63
2021/09/24 09:02:51;;;;;;;3.88;3.47;;;;;;;20.25;58.25;97027.75;5115494;28;20715;-64
2021/09/24 09:05:17;;;;;;;4.63;3.75;;;;;;;20.20;58.22;97027.00;5115009;28;20180;-63
2021/09/24 09:07:44;;;;;;;4.25;3.72;;;;;;;20.14;58.18;97022.81;5115181;28;20199;-63
2021/09/24 09:10:11;;;;;;;4.72;3.70;;;;;;;20.13;58.28;97021.22;5114772;28;20207;-63
2021/09/24 09:12:36;;;;;;;3.78;3.40;;;;;;;19.24;60.64;97014.47;5115008;28;20184;-62
2021/09/24 09:15:14;;;;;;;3.42;3.08;;;;;;;18.82;62.06;97007.03;5115491;28;20198;-62
2021/09/24 09:17:42;;;;;;;3.83;3.53;;;;;;;18.61;62.58;97017.72;5114932;28;20235;-62
2021/09/24 09:20:18;;;;;;;3.47;3.17;;;;;;;18.54;63.16;97019.88;5114773;28;20184;-62
2021/09/24 09:22:47;;;;;;;3.70;3.25;;;;;;;18.70;62.88;97015.31;5100312;28;20542;-62
2021/09/24 09:25:33;;;;;;;3.17;2.97;;;;;;;18.78;62.57;97020.03;5115066;28;20184;-62
2021/09/24 09:28:02;;;;;;;4.32;3.40;;;;;;;18.96;62.09;97023.94;5112063;28;20263;-62
2021/09/24 09:30:29;;;;;;;3.95;3.55;;;;;;;18.96;61.00;97022.06;5093696;28;20184;-62
2021/09/24 09:33:04;;;;;;;4.93;3.90;;;;;;;18.87;61.93;97022.94;5114116;28;20184;-62
2021/09/24 09:36:00;;;;;;;4.85;3.63;;;;;;;18.93;61.58;97029.81;5098770;28;20625;-62
2021/09/24 09:38:33;;;;;;;4.22;3.50;;;;;;;19.33;60.05;97026.13;5111514;28;20207;-62
2021/09/24 09:41:04;;;;;;;3.47;3.10;;;;;;;19.70;59.09;97022.94;5114570;28;20187;-62
2021/09/24 09:43:33;;;;;;;4.13;3.22;;;;;;;19.66;60.01;97030.69;5113697;28;20546;-62
2021/09/24 09:46:02;;;;;;;6.15;2.92;;;;;;;20.36;57.89;97028.47;5114347;28;20211;-62
2021/09/24 09:48:27;;;;;;;3.30;3.00;;;;;;;20.71;56.94;97021.94;5113562;28;20215;-62
2021/09/24 09:50:53;;;;;;;2.92;2.63;;;;;;;20.84;56.04;97023.13;5113862;28;20247;-63
2021/09/24 09:53:19;;;;;;;2.55;2.35;;;;;;;20.94;54.96;97017.66;5113970;28;20267;-62
2021/09/24 09:55:52;;;;;;;3.92;2.40;;;;;;;21.26;54.78;97025.75;5113465;28;20223;-62
2021/09/24 09:58:22;;;;;;;3.42;2.75;;;;;;;21.33;54.51;97015.53;5114307;28;20208;-62
2021/09/24 10:00:55;;;;;;;2.63;2.35;;;;;;;21.48;54.05;97014.50;5114434;28;20168;-62
2021/09/24 10:03:31;;;;;;;3.38;2.40;;;;;;;21.37;54.45;97018.41;5114219;28;20535;-64
2021/09/24 10:05:57;;;;;;;3.83;2.90;;;;;;;21.74;53.57;97010.34;5114627;28;20627;-63
2021/09/24 10:08:30;;;;;;;3.70;3.40;;;;;;;21.33;54.87;97010.19;5113989;28;20184;-62
2021/09/24 10:11:01;;;;;;;5.38;3.50;;;;;;;20.98;56.70;97010.66;5113838;28;20198;-62
2021/09/24 10:13:29;;;;;;;6.75;3.88;;;;;;;20.21;57.80;97004.66;5114295;28;20656;-62
2021/09/24 10:15:54;;;;;;;4.10;3.70;;;;;;;19.75;59.71;97007.75;5113673;28;20233;-62
2021/09/24 10:18:20;;;;;;;5.53;3.50;;;;;;;19.48;60.93;97005.56;5113375;28;20290;-62
2021/09/24 10:20:47;;;;;;;4.47;3.90;;;;;;;19.26;61.33;97009.69;5113670;28;20202;-62
2021/09/24 10:23:12;;;;;;;3.63;3.15;;;;;;;19.15;61.32;97005.50;5113559;28;20550;-62
2021/09/24 10:25:39;;;;;;;3.92;3.40;;;;;;;19.09;61.06;97002.88;5113563;28;20176;-62
2021/09/24 10:28:06;;;;;;;4.03;3.30;;;;;;;19.15;61.58;97000.19;5113692;28;20240;-62
2021/09/24 10:30:35;;;;;;;3.72;3.28;;;;;;;18.97;60.95;96996.31;5113060;28;20184;-62
2021/09/24 10:33:11;;;;;;;4.60;3.72;;;;;;;19.17;61.76;96995.41;5113368;28;20184;-62
2021/09/24 10:36:01;;;;;;;3.72;2.90;;;;;;;18.95;61.71;96998.44;5112394;28;20182;-62
2021/09/24 10:38:30;;;;;;;4.18;2.72;;;;;;;18.96;62.45;96992.84;5098554;28;20211;-62
2021/09/24 10:41:05;;;;;;;3.15;2.88;;;;;;;19.24;61.31;96990.56;5094920;28;20271;-62
2021/09/24 10:43:47;;;;;;;2.75;2.55;;;;;;;19.33;60.26;96984.41;5113384;28;20199;-62
2021/09/24 10:46:38;;;;;;;3.80;2.50;;;;;;;19.38;59.13;96984.34;5105816;28;20626;-62
2021/09/24 10:49:15;;;;;;;2.17;2.08;;;;;;;19.65;59.21;96983.09;5112741;28;20839;-62
2021/09/24 10:51:46;;;;;;;3.33;3.00;;;;;;;19.81;58.40;96979.22;5113585;28;20187;-62
2021/09/24 10:54:17;;;;;;;3.40;2.50;;;;;;;20.07;57.55;96980.56;5112208;28;20199;-62
2021/09/24 10:56:59;;;;;;;2.58;2.38;;;;;;;20.01;57.86;96973.69;5113147;28;20294;-62
2021/09/24 10:59:29;;;;;;;2.95;2.65;;;;;;;20.13;57.78;96973.31;5113338;28;20204;-62
2021/09/24 11:01:56;;;;;;;2.75;2.53;;;;;;;20.04;58.45;96964.38;5112835;28;20179;-62
2021/09/24 11:04:41;;;;;;;4.07;2.90;;;;;;;20.31;57.96;96968.09;5113160;28;20192;-62
2021/09/24 11:07:07;;;;;;;5.00;3.08;;;;;;;20.36;58.69;96969.88;5112897;28;20705;-62
2021/09/24 11:09:32;;;;;;;3.85;2.35;;;;;;;20.61;55.23;96972.25;5113149;28;20266;-62
2021/09/24 11:12:03;;;;;;;2.65;2.45;;;;;;;20.69;54.09;96973.47;5112950;28;20187;-62
2021/09/24 11:14:33;;;;;;;2.35;2.13;;;;;;;20.85;53.65;96974.84;5113335;28;20271;-62
2021/09/24 11:17:00;;;;;;;2.50;2.30;;;;;;;21.05;53.81;96971.13;5113143;28;20227;-62
2021/09/24 11:19:46;;;;;;;2.65;2.45;;;;;;;21.07;53.66;96967.06;5113265;28;20183;-62
2021/09/24 11:22:15;;;;;;;3.38;2.50;;;;;;;21.18;53.78;96962.41;5094331;28;20186;-62
2021/09/24 11:24:45;;;;;;;2.53;2.33;;;;;;;21.21;54.33;96967.19;5113000;28;20191;-62
2021/09/24 11:27:13;;;;;;;2.60;2.40;;;;;;;21.18;53.75;96966.97;5094890;28;20643;-63
2021/09/24 11:30:01;;;;;;;3.95;2.95;;;;;;;21.18;54.26;96970.41;5113093;28;20205;-62
2021/09/24 11:32:38;;;;;;;3.10;2.80;;;;;;;21.21;54.76;96959.19;5112344;28;20330;-63